KBEH/BEH METAR and TAF weather

Enter ICAO airport designator
Station Type Date Time Source
KBEH METAR 2020/04/09 19:53 UTC NOAA

KBEH 091953Z AUTO 31010G19KT 10SM FEW030 BKN039 OVC070 06/M03 A2974 RMK AO2 PK WND 28033/1904 RAB06E16 SLP076 P0000 T00561028


Station Type Date Time Source
KBEH Decoded METAR 2020/04/09 19:53 UTC NOAA

SOUTHWEST MICHIGAN REGIONAL, MI, United States (KBEH) 42-08N 86-25W 191M
Apr 09, 2020 - 03:53 PM EDT / 2020.04.09 1953 UTC
Wind: from the NW (310 degrees) at 12 MPH (10 KT) gusting to 22 MPH (19 KT):0
Visibility: 10 mile(s):0
Sky conditions: overcast
Precipitation last hour: A trace
Temperature: 42.1 F (5.6 C)
Dew Point: 27.0 F (-2.8 C)
Relative Humidity: 54%
Pressure (altimeter): 29.74 in. Hg (1007 hPa)
ob: KBEH 091953Z AUTO 31010G19KT 10SM FEW030 BKN039 OVC070 06/M03 A2974 RMK AO2 PK WND 28033/1904 RAB06E16 SLP076 P0000 T00561028
cycle: 20

Station Type Date Time Source
KBEH TAF UTC NOAA

Error!

Example: see airport list